Time;durP1;ratioP1;P1;durP2;ratioP2;P2;SDS_P1;SDS_P2;PMS_P1;PMS_P2;Temp;Humidity;BMP_temperature;BMP_pressure;BME280_temperature;BME280_humidity;BME280_pressure;Samples;Min_cycle;Max_cycle;Signal;HPM_P1;HPM_P2
2023/10/15 00:00:16;;;;;;;6.45;1.40;;;;;;;;;;5075354;28;20052;-80
2023/10/15 00:02:43;;;;;;;11.20;1.40;;;;;;;;;;5063716;28;20049;-79
2023/10/15 00:05:12;;;;;;;6.20;1.65;;;;;;;;;;5076234;28;20041;-80
2023/10/15 00:07:39;;;;;;;11.43;1.75;;;;;;;;;;5076411;28;20048;-80
2023/10/15 00:10:12;;;;;;;7.63;1.33;;;;;;;;;;5074374;28;20393;-80
2023/10/15 00:12:38;;;;;;;11.23;1.48;;;;;;;;;;5066929;28;20505;-80
2023/10/15 00:15:14;;;;;;;5.88;1.17;;;;;;;;;;5072805;28;20102;-80
2023/10/15 00:17:42;;;;;;;6.75;1.20;;;;;;;;;;5076735;28;20378;-80
2023/10/15 00:20:10;;;;;;;7.07;1.30;;;;;;;;;;5070336;28;20052;-80
2023/10/15 00:22:37;;;;;;;7.28;1.25;;;;;;;;;;5072118;28;20048;-80
2023/10/15 00:25:08;;;;;;;5.90;1.20;;;;;;;;;;5072002;28;20044;-80
2023/10/15 00:27:36;;;;;;;7.32;1.20;;;;;;;;;;5070975;28;20093;-80
2023/10/15 00:30:02;;;;;;;7.40;1.00;;;;;;;;;;5072457;28;20056;-80
2023/10/15 00:32:29;;;;;;;7.13;1.25;;;;;;;;;;5073039;28;20085;-80
2023/10/15 00:34:55;;;;;;;5.65;1.13;;;;;;;;;;5073134;28;20044;-79
2023/10/15 00:37:22;;;;;;;8.80;1.10;;;;;;;;;;5077761;28;20048;-80
2023/10/15 00:39:48;;;;;;;7.40;1.25;;;;;;;;;;5068955;28;20493;-80
2023/10/15 00:42:15;;;;;;;8.18;1.02;;;;;;;;;;5077153;28;20040;-80
2023/10/15 00:44:42;;;;;;;8.80;1.30;;;;;;;;;;5076357;28;20044;-80
2023/10/15 00:47:15;;;;;;;7.32;1.00;;;;;;;;;;5075827;28;20044;-79
2023/10/15 00:49:42;;;;;;;7.78;1.13;;;;;;;;;;5075814;28;20055;-79
2023/10/15 00:52:09;;;;;;;7.97;1.20;;;;;;;;;;5074131;28;20044;-79
2023/10/15 00:54:37;;;;;;;7.47;1.02;;;;;;;;;;5078393;28;20093;-79
2023/10/15 00:57:25;;;;;;;4.22;1.10;;;;;;;;;;5077790;28;20051;-80
2023/10/15 00:59:54;;;;;;;7.93;1.10;;;;;;;;;;5080976;28;20060;-79
2023/10/15 01:02:28;;;;;;;8.35;1.40;;;;;;;;;;5082568;28;20076;-79
2023/10/15 01:04:58;;;;;;;5.57;0.95;;;;;;;;;;5097126;28;20405;-79
2023/10/15 01:07:47;;;;;;;5.40;0.88;;;;;;;;;;5080698;28;20401;-79
2023/10/15 01:10:36;;;;;;;6.43;1.00;;;;;;;;;;5082349;28;20179;-79
2023/10/15 01:13:10;;;;;;;6.57;1.00;;;;;;;;;;5082496;28;20049;-79
2023/10/15 01:15:42;;;;;;;8.25;1.27;;;;;;;;;;5083478;28;20059;-79
2023/10/15 01:18:10;;;;;;;5.50;0.90;;;;;;;;;;5084555;28;20051;-79
2023/10/15 01:20:43;;;;;;;5.57;0.98;;;;;;;;;;5081504;28;20080;-79
2023/10/15 01:23:13;;;;;;;5.43;0.98;;;;;;;;;;5085211;28;20033;-79
2023/10/15 01:25:48;;;;;;;5.85;1.30;;;;;;;;;;5075957;28;20041;-79
2023/10/15 01:28:16;;;;;;;9.18;1.42;;;;;;;;;;5082969;28;20040;-79
2023/10/15 01:30:42;;;;;;;5.40;1.15;;;;;;;;;;5082860;28;20048;-79
2023/10/15 01:33:10;;;;;;;5.03;1.08;;;;;;;;;;5079913;28;20101;-79
2023/10/15 01:35:38;;;;;;;8.50;1.10;;;;;;;;;;5079978;28;20079;-79
2023/10/15 01:38:10;;;;;;;5.25;0.90;;;;;;;;;;5077687;28;21303;-79
2023/10/15 01:40:40;;;;;;;4.20;1.10;;;;;;;;;;5045021;28;20045;-79
2023/10/15 01:43:12;;;;;;;7.50;1.00;;;;;;;;;;5079121;28;20501;-79
2023/10/15 01:45:40;;;;;;;8.80;1.05;;;;;;;;;;5078932;28;20048;-79
2023/10/15 01:48:24;;;;;;;8.32;0.95;;;;;;;;;;5078468;28;20550;-79
2023/10/15 01:50:50;;;;;;;8.82;1.05;;;;;;;;;;5077745;28;20417;-79
2023/10/15 01:53:16;;;;;;;4.75;0.80;;;;;;;;;;5080915;28;20040;-79
2023/10/15 01:55:55;;;;;;;5.50;0.98;;;;;;;;;;5071142;28;20079;-79
2023/10/15 01:58:30;;;;;;;6.22;1.00;;;;;;;;;;5084664;28;20040;-79
2023/10/15 02:01:05;;;;;;;4.30;0.93;;;;;;;;;;5078950;28;20116;-79
2023/10/15 02:03:31;;;;;;;5.78;1.10;;;;;;;;;;5078262;28;20049;-79
2023/10/15 02:06:04;;;;;;;6.32;1.23;;;;;;;;;;5079210;28;20447;-79
2023/10/15 02:08:30;;;;;;;7.63;1.05;;;;;;;;;;5078070;28;20060;-79
2023/10/15 02:10:56;;;;;;;6.63;1.00;;;;;;;;;;5078622;28;20072;-79
2023/10/15 02:13:23;;;;;;;8.45;1.05;;;;;;;;;;5078946;28;20060;-79
2023/10/15 02:15:49;;;;;;;5.75;1.00;;;;;;;;;;5088092;28;20037;-80
2023/10/15 02:18:18;;;;;;;4.72;0.88;;;;;;;;;;5077369;28;20097;-79
2023/10/15 02:20:47;;;;;;;6.60;1.23;;;;;;;;;;5077738;28;20080;-79
2023/10/15 02:23:15;;;;;;;6.95;0.95;;;;;;;;;;5070837;28;20041;-79
2023/10/15 02:25:56;;;;;;;5.53;0.98;;;;;;;;;;5080551;28;20048;-80
2023/10/15 02:28:31;;;;;;;5.88;0.90;;;;;;;;;;5072769;28;20097;-79
2023/10/15 02:33:27;;;;;;;7.75;1.13;;;;;;;;;;5071844;28;20049;-79
2023/10/15 02:35:59;;;;;;;5.55;0.93;;;;;;;;;;5077343;28;20063;-79
2023/10/15 02:38:36;;;;;;;6.65;1.00;;;;;;;;;;5077424;28;20071;-79
2023/10/15 02:41:05;;;;;;;5.80;1.02;;;;;;;;;;5072835;28;20102;-79
2023/10/15 02:43:32;;;;;;;5.40;0.88;;;;;;;;;;5078235;28;20048;-79
2023/10/15 02:46:47;;;;;;;9.32;1.10;;;;;;;;;;5077517;28;20053;-79
2023/10/15 02:48:48;;;;;;;6.55;1.00;;;;;;;;;;5070355;28;20059;-79
2023/10/15 02:51:19;;;;;;;5.43;0.90;;;;;;;;;;5064473;28;20084;-79
2023/10/15 02:53:52;;;;;;;;;;;;;;;;;;5073016;28;20098;-79
2023/10/15 02:56:18;;;;;;;6.22;1.00;;;;;;;;;;5075992;28;19924;-79
2023/10/15 02:58:47;;;;;;;4.22;0.95;;;;;;;;;;5076441;28;20405;-80
2023/10/15 03:01:19;;;;;;;6.30;1.10;;;;;;;;;;5077143;28;20109;-79
2023/10/15 03:03:50;;;;;;;5.15;0.90;;;;;;;;;;5075084;28;20053;-79
2023/10/15 03:06:24;;;;;;;5.22;1.20;;;;;;;;;;5076799;28;20071;-79
2023/10/15 03:08:51;;;;;;;4.88;1.02;;;;;;;;;;5071679;28;20048;-79
2023/10/15 03:11:19;;;;;;;4.90;0.90;;;;;;;;;;5091058;28;20052;-79
2023/10/15 03:16:18;;;;;;;7.85;1.40;;;;;;;;;;5071426;28;20132;-79
2023/10/15 03:18:48;;;;;;;8.43;1.40;;;;;;;;;;5068799;28;20044;-79
2023/10/15 03:21:20;;;;;;;7.05;1.10;;;;;;;;;;5077913;28;20151;-79
2023/10/15 03:23:49;;;;;;;3.60;0.73;;;;;;;;;;5073512;28;20538;-80
2023/10/15 03:26:17;;;;;;;6.78;1.27;;;;;;;;;;5081906;28;20428;-80
2023/10/15 03:28:51;;;;;;;5.38;0.93;;;;;;;;;;5076205;28;20044;-79
2023/10/15 03:31:17;;;;;;;5.18;0.80;;;;;;;;;;5077464;28;20055;-79
2023/10/15 03:34:11;;;;;;;4.25;0.80;;;;;;;;;;5077052;28;20071;-79
2023/10/15 03:36:42;;;;;;;5.85;0.80;;;;;;;;;;5076797;28;20071;-79
2023/10/15 03:39:15;;;;;;;5.38;0.90;;;;;;;;;;5077749;28;20052;-79
2023/10/15 03:41:41;;;;;;;5.20;0.98;;;;;;;;;;5076590;28;20041;-79
2023/10/15 03:44:10;;;;;;;4.93;0.90;;;;;;;;;;5075820;28;20058;-79
2023/10/15 03:46:36;;;;;;;5.78;0.88;;;;;;;;;;5077393;28;20048;-79
2023/10/15 03:49:08;;;;;;;6.70;1.10;;;;;;;;;;5077854;28;20040;-79
2023/10/15 03:51:40;;;;;;;6.45;1.23;;;;;;;;;;5077142;28;20071;-79
2023/10/15 03:54:07;;;;;;;9.07;1.15;;;;;;;;;;5093188;28;20413;-79
2023/10/15 03:56:34;;;;;;;6.45;1.15;;;;;;;;;;5082541;28;20055;-79
2023/10/15 03:59:01;;;;;;;5.63;0.98;;;;;;;;;;5073437;28;20040;-79
2023/10/15 04:01:30;;;;;;;6.35;1.40;;;;;;;;;;5073868;28;20044;-79
2023/10/15 04:04:00;;;;;;;7.35;1.40;;;;;;;;;;5082870;28;20044;-80
2023/10/15 04:06:27;;;;;;;6.47;1.05;;;;;;;;;;5085094;28;20127;-80
2023/10/15 04:11:42;;;;;;;6.45;1.25;;;;;;;;;;5065628;28;20413;-80
2023/10/15 04:14:18;;;;;;;7.88;1.13;;;;;;;;;;5081788;28;20053;-80
2023/10/15 04:16:44;;;;;;;6.35;1.00;;;;;;;;;;5077361;28;20041;-80
2023/10/15 04:19:10;;;;;;;6.18;1.08;;;;;;;;;;5078729;28;20047;-80
2023/10/15 04:21:40;;;;;;;5.78;0.80;;;;;;;;;;5066411;28;20083;-80
2023/10/15 04:24:09;;;;;;;6.25;1.13;;;;;;;;;;5071734;28;20127;-80
2023/10/15 04:26:40;;;;;;;6.75;1.10;;;;;;;;;;5074494;28;20094;-80
2023/10/15 04:29:21;;;;;;;10.30;1.42;;;;;;;;;;5063949;28;20048;-80
2023/10/15 04:31:59;;;;;;;5.63;1.05;;;;;;;;;;5060693;28;20044;-80
2023/10/15 04:34:26;;;;;;;5.68;1.10;;;;;;;;;;5070694;28;20102;-80
2023/10/15 04:36:54;;;;;;;6.05;1.30;;;;;;;;;;5080481;28;20045;-80
2023/10/15 04:39:22;;;;;;;5.38;0.90;;;;;;;;;;5065472;28;20141;-80
2023/10/15 04:41:49;;;;;;;7.80;1.27;;;;;;;;;;5075578;28;20109;-80
2023/10/15 04:44:21;;;;;;;5.97;1.00;;;;;;;;;;5075231;28;20041;-80
2023/10/15 04:46:47;;;;;;;6.63;1.00;;;;;;;;;;5075624;28;20107;-80
2023/10/15 04:49:17;;;;;;;8.07;1.20;;;;;;;;;;5075359;28;20051;-80
2023/10/15 04:51:43;;;;;;;8.85;1.30;;;;;;;;;;5074569;28;20047;-80
2023/10/15 04:54:10;;;;;;;6.38;1.25;;;;;;;;;;5075646;28;20374;-80
2023/10/15 04:56:36;;;;;;;6.30;1.10;;;;;;;;;;5073517;28;20041;-80
2023/10/15 04:59:03;;;;;;;4.50;1.00;;;;;;;;;;5075943;28;20090;-80
2023/10/15 05:01:30;;;;;;;5.70;0.90;;;;;;;;;;5074412;28;20410;-80
2023/10/15 05:03:56;;;;;;;6.50;0.95;;;;;;;;;;5085277;28;20032;-80
2023/10/15 05:06:22;;;;;;;5.07;0.82;;;;;;;;;;5073424;28;20048;-80
2023/10/15 05:08:49;;;;;;;5.50;1.25;;;;;;;;;;5075662;28;20044;-80
2023/10/15 05:11:21;;;;;;;7.45;1.10;;;;;;;;;;5075070;28;20044;-80
2023/10/15 05:13:47;;;;;;;6.22;1.15;;;;;;;;;;5075448;28;20090;-80
2023/10/15 05:16:14;;;;;;;7.35;1.17;;;;;;;;;;5087813;28;20070;-80
2023/10/15 05:18:40;;;;;;;7.72;1.00;;;;;;;;;;5074446;28;20052;-80
2023/10/15 05:21:06;;;;;;;4.95;1.05;;;;;;;;;;5064552;28;20508;-80
2023/10/15 05:23:33;;;;;;;5.97;0.90;;;;;;;;;;5073066;28;20040;-80
2023/10/15 05:25:59;;;;;;;6.15;0.93;;;;;;;;;;5078265;28;20044;-80
2023/10/15 05:28:26;;;;;;;6.10;0.88;;;;;;;;;;5075990;28;20040;-80
2023/10/15 05:30:52;;;;;;;6.55;1.30;;;;;;;;;;5085902;28;20067;-80
2023/10/15 05:33:20;;;;;;;4.30;0.93;;;;;;;;;;5072973;28;20086;-80
2023/10/15 05:35:47;;;;;;;4.82;1.00;;;;;;;;;;5083722;28;20058;-80
2023/10/15 05:38:13;;;;;;;7.97;1.10;;;;;;;;;;5084790;28;20044;-79
2023/10/15 05:40:39;;;;;;;6.55;1.08;;;;;;;;;;5083642;28;20040;-79
2023/10/15 05:43:05;;;;;;;4.97;1.00;;;;;;;;;;5078326;28;20052;-80
2023/10/15 05:45:31;;;;;;;5.57;0.85;;;;;;;;;;5078603;28;20110;-80
2023/10/15 05:47:57;;;;;;;6.05;1.17;;;;;;;;;;5089363;28;20043;-80
2023/10/15 05:50:23;;;;;;;5.43;1.25;;;;;;;;;;5078378;28;20051;-80
2023/10/15 05:52:50;;;;;;;5.97;1.00;;;;;;;;;;5075036;28;20048;-80
2023/10/15 05:55:17;;;;;;;5.78;0.90;;;;;;;;;;5064301;28;20041;-80
2023/10/15 05:57:43;;;;;;;6.18;1.00;;;;;;;;;;5059233;28;20045;-80
2023/10/15 06:00:19;;;;;;;8.43;1.10;;;;;;;;;;5075027;28;20509;-80
2023/10/15 06:02:46;;;;;;;5.47;0.90;;;;;;;;;;5071615;28;20452;-79
2023/10/15 06:05:13;;;;;;;6.75;0.90;;;;;;;;;;5072449;28;20131;-80
2023/10/15 06:07:42;;;;;;;4.50;0.82;;;;;;;;;;5093658;28;20577;-80
2023/10/15 06:10:09;;;;;;;7.70;0.93;;;;;;;;;;5079196;28;20060;-80
2023/10/15 06:12:36;;;;;;;6.75;1.13;;;;;;;;;;5073063;28;20056;-80
2023/10/15 06:15:04;;;;;;;7.78;0.95;;;;;;;;;;5067626;28;20041;-80
2023/10/15 06:17:30;;;;;;;6.30;0.93;;;;;;;;;;5083006;28;20049;-80
2023/10/15 06:19:56;;;;;;;7.72;1.13;;;;;;;;;;5069986;28;20041;-80
2023/10/15 06:22:22;;;;;;;3.67;0.70;;;;;;;;;;5077168;28;20562;-80
2023/10/15 06:24:48;;;;;;;5.05;0.90;;;;;;;;;;5076309;28;20548;-80
2023/10/15 06:27:15;;;;;;;4.63;0.88;;;;;;;;;;5075305;28;20104;-80
2023/10/15 06:29:41;;;;;;;4.85;0.88;;;;;;;;;;5077505;28;20563;-80
2023/10/15 06:32:07;;;;;;;7.30;0.88;;;;;;;;;;5076833;28;20123;-78
2023/10/15 06:34:33;;;;;;;5.95;1.23;;;;;;;;;;5074173;28;20409;-80
2023/10/15 06:36:59;;;;;;;7.57;1.08;;;;;;;;;;5078177;28;20037;-80
2023/10/15 06:39:27;;;;;;;6.90;0.98;;;;;;;;;;5082922;28;20409;-80
2023/10/15 06:41:53;;;;;;;5.07;0.80;;;;;;;;;;5096843;28;20060;-80
2023/10/15 06:44:19;;;;;;;5.20;0.90;;;;;;;;;;5081740;28;20041;-79
2023/10/15 06:46:45;;;;;;;4.05;0.90;;;;;;;;;;5083116;28;20037;-80
2023/10/15 06:49:11;;;;;;;3.97;0.80;;;;;;;;;;5090144;28;20055;-80
2023/10/15 06:51:39;;;;;;;5.35;0.93;;;;;;;;;;5089544;28;20040;-80
2023/10/15 06:54:05;;;;;;;3.20;0.63;;;;;;;;;;5076417;28;20044;-79
2023/10/15 06:56:32;;;;;;;4.95;1.02;;;;;;;;;;5077980;28;20115;-80
2023/10/15 06:58:58;;;;;;;4.18;0.80;;;;;;;;;;5080794;28;20419;-80
2023/10/15 07:01:26;;;;;;;5.22;0.75;;;;;;;;;;5076679;28;20041;-80
2023/10/15 07:03:52;;;;;;;5.65;0.90;;;;;;;;;;5076130;28;20049;-80
2023/10/15 07:06:19;;;;;;;5.93;0.90;;;;;;;;;;5076732;28;20052;-80
2023/10/15 07:08:45;;;;;;;4.55;0.90;;;;;;;;;;5082284;28;20051;-80
2023/10/15 07:11:11;;;;;;;4.47;0.80;;;;;;;;;;5077997;28;20040;-80
2023/10/15 07:13:37;;;;;;;6.60;1.00;;;;;;;;;;5075271;28;20052;-80
2023/10/15 07:16:03;;;;;;;6.88;0.93;;;;;;;;;;5081041;28;20123;-80
2023/10/15 07:18:33;;;;;;;5.03;0.98;;;;;;;;;;5077345;28;20044;-79
2023/10/15 07:20:59;;;;;;;6.45;0.90;;;;;;;;;;5076217;28;20092;-80
2023/10/15 07:23:25;;;;;;;4.05;0.80;;;;;;;;;;5075535;28;20089;-80
2023/10/15 07:25:51;;;;;;;7.40;0.85;;;;;;;;;;5075356;28;20090;-79
2023/10/15 07:28:17;;;;;;;6.57;1.10;;;;;;;;;;5073176;28;20071;-79
2023/10/15 07:30:44;;;;;;;4.10;0.73;;;;;;;;;;5072260;28;20044;-79
2023/10/15 07:33:10;;;;;;;4.95;0.90;;;;;;;;;;5069813;28;20044;-79
2023/10/15 07:35:37;;;;;;;3.17;0.70;;;;;;;;;;5073430;28;20070;-79
2023/10/15 07:38:04;;;;;;;6.82;0.65;;;;;;;;;;5072610;28;20409;-80
2023/10/15 07:40:32;;;;;;;3.08;0.70;;;;;;;;;;5073539;28;20043;-80
2023/10/15 07:42:59;;;;;;;4.43;1.00;;;;;;;;;;5074110;28;20063;-80
2023/10/15 07:45:28;;;;;;;4.45;0.80;;;;;;;;;;5075664;28;20075;-80
2023/10/15 07:47:55;;;;;;;4.82;0.90;;;;;;;;;;5072835;28;20051;-80
2023/10/15 07:50:23;;;;;;;4.35;0.70;;;;;;;;;;5073626;28;20041;-80
2023/10/15 07:52:50;;;;;;;3.63;0.68;;;;;;;;;;5071914;28;20055;-80
2023/10/15 07:55:16;;;;;;;5.63;0.90;;;;;;;;;;5073716;28;20056;-80
2023/10/15 07:57:42;;;;;;;6.43;0.80;;;;;;;;;;5073468;28;20043;-81
2023/10/15 08:00:14;;;;;;;4.63;0.70;;;;;;;;;;5073869;28;20047;-80
2023/10/15 08:02:41;;;;;;;3.47;0.60;;;;;;;;;;5073429;28;20051;-79
2023/10/15 08:05:08;;;;;;;5.13;0.73;;;;;;;;;;5072995;28;20037;-80
2023/10/15 08:07:37;;;;;;;1.90;0.43;;;;;;;;;;5069248;28;20082;-80
2023/10/15 08:10:03;;;;;;;6.10;0.77;;;;;;;;;;5069972;28;20124;-79
2023/10/15 08:12:29;;;;;;;5.70;0.70;;;;;;;;;;5071458;28;20053;-79
2023/10/15 08:14:57;;;;;;;2.38;0.50;;;;;;;;;;5068237;28;20044;-79
2023/10/15 08:17:23;;;;;;;2.67;0.50;;;;;;;;;;5072123;28;20131;-79
2023/10/15 08:19:51;;;;;;;5.55;0.50;;;;;;;;;;5070290;28;20056;-79
2023/10/15 08:22:17;;;;;;;2.35;0.60;;;;;;;;;;5071503;28;20061;-79
2023/10/15 08:24:43;;;;;;;5.70;0.88;;;;;;;;;;5071628;28;20406;-79
2023/10/15 08:27:09;;;;;;;3.17;0.70;;;;;;;;;;5071778;28;20051;-79
2023/10/15 08:29:35;;;;;;;2.55;0.80;;;;;;;;;;5072983;28;20048;-79
2023/10/15 08:32:02;;;;;;;1.95;0.60;;;;;;;;;;5069153;28;20047;-79
2023/10/15 08:34:28;;;;;;;4.68;0.80;;;;;;;;;;5072374;28;20036;-79
2023/10/15 08:36:54;;;;;;;3.72;0.65;;;;;;;;;;5073510;28;20045;-80
2023/10/15 08:39:23;;;;;;;3.38;0.75;;;;;;;;;;5073631;28;20040;-80
2023/10/15 08:41:54;;;;;;;2.08;0.60;;;;;;;;;;5073529;28;20048;-80
2023/10/15 08:44:20;;;;;;;5.35;0.95;;;;;;;;;;5073199;28;20120;-79
2023/10/15 08:46:49;;;;;;;5.95;1.10;;;;;;;;;;5072264;28;20052;-80
2023/10/15 08:49:16;;;;;;;4.18;1.10;;;;;;;;;;5071994;28;20045;-80
2023/10/15 08:51:43;;;;;;;5.30;1.10;;;;;;;;;;5073948;28;20056;-79
2023/10/15 08:54:14;;;;;;;3.90;0.77;;;;;;;;;;5075925;28;20507;-79
2023/10/15 08:56:43;;;;;;;3.00;0.80;;;;;;;;;;5073075;28;20040;-79
2023/10/15 08:59:09;;;;;;;3.60;0.90;;;;;;;;;;5073675;28;20508;-79
2023/10/15 09:01:42;;;;;;;4.70;0.90;;;;;;;;;;5067631;28;20052;-79
2023/10/15 09:04:09;;;;;;;4.32;0.80;;;;;;;;;;5067733;28;20512;-79
2023/10/15 09:06:36;;;;;;;4.13;0.60;;;;;;;;;;5066849;28;20045;-79
2023/10/15 09:09:02;;;;;;;4.88;0.70;;;;;;;;;;5070937;28;20103;-79
2023/10/15 09:11:29;;;;;;;6.25;1.10;;;;;;;;;;5071193;28;20389;-79
2023/10/15 09:13:55;;;;;;;6.03;0.70;;;;;;;;;;5073125;28;20044;-79
2023/10/15 09:16:21;;;;;;;6.13;0.90;;;;;;;;;;5073734;28;20133;-79
2023/10/15 09:18:48;;;;;;;5.50;0.80;;;;;;;;;;5075503;28;20075;-79
2023/10/15 09:21:37;;;;;;;5.72;0.80;;;;;;;;;;5075486;28;20048;-79
2023/10/15 09:24:02;;;;;;;5.07;1.13;;;;;;;;;;5075364;28;20052;-79
2023/10/15 09:26:31;;;;;;;7.68;0.93;;;;;;;;;;5075901;28;20059;-79
2023/10/15 09:28:57;;;;;;;4.30;0.90;;;;;;;;;;5073413;28;20054;-79
2023/10/15 09:31:25;;;;;;;5.68;0.95;;;;;;;;;;5074791;28;20405;-79
2023/10/15 09:33:51;;;;;;;4.18;0.90;;;;;;;;;;5075503;28;20047;-79
2023/10/15 09:36:17;;;;;;;6.93;0.80;;;;;;;;;;5092141;28;20056;-78
2023/10/15 09:38:45;;;;;;;4.10;0.70;;;;;;;;;;5076843;28;20053;-79
2023/10/15 09:41:12;;;;;;;7.68;0.98;;;;;;;;;;5073112;28;20051;-79
2023/10/15 09:43:38;;;;;;;5.72;0.90;;;;;;;;;;5076545;28;20055;-79
2023/10/15 09:46:05;;;;;;;5.15;0.88;;;;;;;;;;5085461;28;20036;-79
2023/10/15 09:48:36;;;;;;;7.38;1.20;;;;;;;;;;5082358;28;20048;-79
2023/10/15 09:51:04;;;;;;;8.05;1.25;;;;;;;;;;5075852;28;20045;-79
2023/10/15 09:53:33;;;;;;;7.13;1.13;;;;;;;;;;5073731;28;20044;-79
2023/10/15 09:56:07;;;;;;;8.10;1.17;;;;;;;;;;5074276;28;20067;-79
2023/10/15 09:58:33;;;;;;;6.00;0.90;;;;;;;;;;5078477;28;20106;-79
2023/10/15 10:01:17;;;;;;;6.70;0.90;;;;;;;;;;5076238;28;20673;-79
2023/10/15 10:03:49;;;;;;;6.95;1.10;;;;;;;;;;5077410;28;20052;-79
2023/10/15 10:06:24;;;;;;;6.50;1.05;;;;;;;;;;5075489;28;20498;-79
2023/10/15 10:09:03;;;;;;;6.03;1.10;;;;;;;;;;5074014;28;20118;-79
2023/10/15 10:12:01;;;;;;;6.13;1.02;;;;;;;;;;5073201;28;20048;-79
2023/10/15 10:14:43;;;;;;;6.93;0.82;;;;;;;;;;4999056;28;20175;-79
2023/10/15 10:17:11;;;;;;;6.50;1.20;;;;;;;;;;4995849;28;20112;-79
2023/10/15 10:19:39;;;;;;;8.07;1.20;;;;;;;;;;5001676;28;20049;-79
2023/10/15 10:22:19;;;;;;;7.03;1.50;;;;;;;;;;5015509;28;20474;-79
2023/10/15 10:24:47;;;;;;;8.27;1.38;;;;;;;;;;4995557;28;20496;-79
2023/10/15 10:27:15;;;;;;;7.00;1.17;;;;;;;;;;4996890;28;20053;-79
2023/10/15 10:29:42;;;;;;;8.82;1.40;;;;;;;;;;5014660;28;20443;-79
2023/10/15 10:32:11;;;;;;;7.75;1.35;;;;;;;;;;5007699;28;20454;-79
2023/10/15 10:34:37;;;;;;;6.40;1.30;;;;;;;;;;5009209;28;20054;-79
2023/10/15 10:37:03;;;;;;;6.60;1.20;;;;;;;;;;5013879;28;20053;-79
2023/10/15 10:39:45;;;;;;;6.35;1.13;;;;;;;;;;5007673;28;20053;-79
2023/10/15 10:42:29;;;;;;;8.40;1.10;;;;;;;;;;5013513;28;20200;-79
2023/10/15 10:44:56;;;;;;;6.93;1.02;;;;;;;;;;5007834;28;20109;-79
2023/10/15 10:47:29;;;;;;;7.97;1.45;;;;;;;;;;4994192;28;20048;-79
2023/10/15 10:50:03;;;;;;;8.23;1.10;;;;;;;;;;5021855;28;20061;-79
2023/10/15 10:52:36;;;;;;;6.35;1.20;;;;;;;;;;5055518;28;20077;-79
2023/10/15 10:55:21;;;;;;;6.95;0.98;;;;;;;;;;5070814;28;20044;-79
2023/10/15 10:57:50;;;;;;;5.60;0.90;;;;;;;;;;5077190;28;20043;-78
2023/10/15 11:00:16;;;;;;;9.02;1.15;;;;;;;;;;5076068;28;20520;-79
2023/10/15 11:02:43;;;;;;;9.75;1.33;;;;;;;;;;5075084;28;20389;-78
2023/10/15 11:05:11;;;;;;;5.82;0.98;;;;;;;;;;5069714;28;20044;-80
2023/10/15 11:07:37;;;;;;;10.63;1.02;;;;;;;;;;5072734;28;20041;-80
2023/10/15 11:10:06;;;;;;;6.97;1.30;;;;;;;;;;5081927;28;20041;-79
2023/10/15 11:12:32;;;;;;;6.05;1.17;;;;;;;;;;5075460;28;20075;-79
2023/10/15 11:14:58;;;;;;;5.65;0.88;;;;;;;;;;5075540;28;20047;-80
2023/10/15 11:17:24;;;;;;;5.03;0.80;;;;;;;;;;5065401;28;20044;-80
2023/10/15 11:19:51;;;;;;;8.07;1.17;;;;;;;;;;5064484;28;20036;-80
2023/10/15 11:22:17;;;;;;;8.70;1.20;;;;;;;;;;5086098;28;20048;-80
2023/10/15 11:24:46;;;;;;;5.97;0.95;;;;;;;;;;5075330;28;20041;-80
2023/10/15 11:27:12;;;;;;;8.20;0.88;;;;;;;;;;5075828;28;20128;-79
2023/10/15 11:29:38;;;;;;;7.25;1.10;;;;;;;;;;5065096;28;20486;-80
2023/10/15 11:32:11;;;;;;;5.45;0.80;;;;;;;;;;5064337;28;20051;-80
2023/10/15 11:34:39;;;;;;;8.13;1.20;;;;;;;;;;5068701;28;20086;-80
2023/10/15 11:37:09;;;;;;;9.05;1.35;;;;;;;;;;5069851;28;20090;-80
2023/10/15 11:39:43;;;;;;;4.70;0.82;;;;;;;;;;5068323;28;20100;-80
2023/10/15 11:42:09;;;;;;;6.45;1.10;;;;;;;;;;5087205;28;20052;-79
2023/10/15 11:44:42;;;;;;;4.18;0.80;;;;;;;;;;5063910;28;20048;-80
2023/10/15 11:47:12;;;;;;;7.18;1.13;;;;;;;;;;5067211;28;20040;-80
2023/10/15 11:49:42;;;;;;;7.70;1.27;;;;;;;;;;5084011;28;20049;-79
2023/10/15 11:52:11;;;;;;;7.43;1.02;;;;;;;;;;5069818;28;20146;-80
2023/10/15 11:54:43;;;;;;;6.88;1.10;;;;;;;;;;5075587;28;20044;-80
2023/10/15 11:57:16;;;;;;;4.18;0.60;;;;;;;;;;5091149;28;20090;-79
2023/10/15 11:59:42;;;;;;;2.85;0.50;;;;;;;;;;5075376;28;20044;-80
2023/10/15 12:02:11;;;;;;;2.60;0.50;;;;;;;;;;5088096;28;20051;-80
2023/10/15 12:04:40;;;;;;;3.40;0.50;;;;;;;;;;5089800;28;20055;-80
2023/10/15 12:07:06;;;;;;;3.83;0.60;;;;;;;;;;5076131;28;20070;-80
2023/10/15 12:09:39;;;;;;;4.05;0.57;;;;;;;;;;5087076;28;20048;-80
2023/10/15 12:12:07;;;;;;;2.80;0.50;;;;;;;;;;5072305;28;20231;-80
2023/10/15 12:14:33;;;;;;;3.17;0.77;;;;;;;;;;5075975;28;20466;-80
2023/10/15 12:16:59;;;;;;;5.47;0.68;;;;;;;;;;5077004;28;20093;-80
2023/10/15 12:19:28;;;;;;;6.60;1.00;;;;;;;;;;5075369;28;20037;-80
2023/10/15 12:21:54;;;;;;;4.93;0.90;;;;;;;;;;5077955;28;20485;-80
2023/10/15 12:24:22;;;;;;;5.28;0.80;;;;;;;;;;5074249;28;20052;-80
2023/10/15 12:26:48;;;;;;;6.85;0.98;;;;;;;;;;5075525;28;20052;-80
2023/10/15 12:29:17;;;;;;;7.60;1.10;;;;;;;;;;5078705;28;20477;-80
2023/10/15 12:31:43;;;;;;;5.75;0.90;;;;;;;;;;5077644;28;20089;-80
2023/10/15 12:34:11;;;;;;;10.30;1.42;;;;;;;;;;5054459;28;20071;-80
2023/10/15 12:36:41;;;;;;;10.30;1.20;;;;;;;;;;5069051;28;20406;-80
2023/10/15 12:39:08;;;;;;;7.57;1.17;;;;;;;;;;5074720;28;20040;-80
2023/10/15 12:41:41;;;;;;;4.40;0.73;;;;;;;;;;5067581;28;20068;-80
2023/10/15 12:44:11;;;;;;;3.67;0.60;;;;;;;;;;5076529;28;20044;-80
2023/10/15 12:46:37;;;;;;;4.18;0.90;;;;;;;;;;5078731;28;20473;-80
2023/10/15 12:49:03;;;;;;;3.40;0.60;;;;;;;;;;5074353;28;20041;-80
2023/10/15 12:51:30;;;;;;;3.33;0.77;;;;;;;;;;5078787;28;20055;-80
2023/10/15 12:53:56;;;;;;;5.57;0.80;;;;;;;;;;5076671;28;20048;-79
2023/10/15 12:56:24;;;;;;;4.57;0.90;;;;;;;;;;5094424;28;20071;-79
2023/10/15 12:58:50;;;;;;;5.18;1.00;;;;;;;;;;5068596;28;20048;-80
2023/10/15 13:01:20;;;;;;;3.35;0.70;;;;;;;;;;5072145;28;20102;-80
2023/10/15 13:03:49;;;;;;;6.30;0.90;;;;;;;;;;5069477;28;20032;-79
2023/10/15 13:06:19;;;;;;;5.30;0.98;;;;;;;;;;5076779;28;20382;-79
2023/10/15 13:08:49;;;;;;;7.05;1.00;;;;;;;;;;5091437;28;20041;-79
2023/10/15 13:11:15;;;;;;;5.82;1.13;;;;;;;;;;5078015;28;20111;-79
2023/10/15 13:13:41;;;;;;;6.28;1.23;;;;;;;;;;5076716;28;20098;-79
2023/10/15 13:16:08;;;;;;;10.57;1.40;;;;;;;;;;5076449;28;21509;-80
2023/10/15 13:18:44;;;;;;;8.02;1.35;;;;;;;;;;5080812;28;20110;-79
2023/10/15 13:21:10;;;;;;;7.47;1.40;;;;;;;;;;5074490;28;20048;-80
2023/10/15 13:23:37;;;;;;;9.40;1.30;;;;;;;;;;5077031;28;20533;-79
2023/10/15 13:26:04;;;;;;;10.07;1.80;;;;;;;;;;5075039;28;20102;-80
2023/10/15 13:28:31;;;;;;;10.95;1.67;;;;;;;;;;5090910;28;20119;-80
2023/10/15 13:30:57;;;;;;;10.80;2.38;;;;;;;;;;5091915;28;20044;-80
2023/10/15 13:33:23;;;;;;;8.98;1.40;;;;;;;;;;5076947;28;20044;-79
2023/10/15 13:35:49;;;;;;;9.10;1.40;;;;;;;;;;5075786;28;20090;-79
2023/10/15 13:38:16;;;;;;;7.75;1.90;;;;;;;;;;5074203;28;20055;-79
2023/10/15 13:40:43;;;;;;;8.02;1.25;;;;;;;;;;5071763;28;20052;-79
2023/10/15 13:43:09;;;;;;;8.18;1.05;;;;;;;;;;5076175;28;20056;-79
2023/10/15 13:45:35;;;;;;;6.95;1.10;;;;;;;;;;5073081;28;20047;-80
2023/10/15 13:48:01;;;;;;;7.47;1.10;;;;;;;;;;5078253;28;20044;-80
2023/10/15 13:50:28;;;;;;;6.80;1.00;;;;;;;;;;5071893;28;20045;-79
2023/10/15 13:52:54;;;;;;;8.15;1.20;;;;;;;;;;5077781;28;20055;-79
2023/10/15 13:55:20;;;;;;;6.30;1.08;;;;;;;;;;5076229;28;20387;-79
2023/10/15 13:57:46;;;;;;;8.27;1.38;;;;;;;;;;5076205;28;20045;-79
2023/10/15 14:00:15;;;;;;;8.55;1.33;;;;;;;;;;5075280;28;20470;-80
2023/10/15 14:02:42;;;;;;;6.72;1.20;;;;;;;;;;5083151;28;20493;-79
2023/10/15 14:05:09;;;;;;;9.02;1.20;;;;;;;;;;5079340;28;20048;-80
2023/10/15 14:07:36;;;;;;;6.40;1.08;;;;;;;;;;5072061;28;20040;-80
2023/10/15 14:10:03;;;;;;;7.47;1.35;;;;;;;;;;5075317;28;20033;-79
2023/10/15 14:12:30;;;;;;;4.43;1.05;;;;;;;;;;5068393;28;20108;-80
2023/10/15 14:14:56;;;;;;;6.80;1.10;;;;;;;;;;5077221;28;20040;-80
2023/10/15 14:17:23;;;;;;;10.15;1.23;;;;;;;;;;5072245;28;20536;-80
2023/10/15 14:19:51;;;;;;;7.95;1.45;;;;;;;;;;5083192;28;20055;-80
2023/10/15 14:22:18;;;;;;;6.00;1.10;;;;;;;;;;5087837;28;20060;-80
2023/10/15 14:24:46;;;;;;;6.65;1.05;;;;;;;;;;5062364;28;20056;-80
2023/10/15 14:27:13;;;;;;;6.53;1.15;;;;;;;;;;5075710;28;20044;-80
2023/10/15 14:29:40;;;;;;;6.63;1.10;;;;;;;;;;5081157;28;20044;-79
2023/10/15 14:32:06;;;;;;;11.48;1.63;;;;;;;;;;5082231;28;20059;-80
2023/10/15 14:34:33;;;;;;;7.50;1.27;;;;;;;;;;5078302;28;20148;-80
2023/10/15 14:37:02;;;;;;;7.72;1.17;;;;;;;;;;5074747;28;20123;-81
2023/10/15 14:39:28;;;;;;;7.82;1.40;;;;;;;;;;5089165;28;20128;-80
2023/10/15 14:41:58;;;;;;;10.35;1.67;;;;;;;;;;5078146;28;20041;-80
2023/10/15 14:44:24;;;;;;;7.03;1.10;;;;;;;;;;5076936;28;20049;-80
2023/10/15 14:46:50;;;;;;;9.63;1.50;;;;;;;;;;5076663;28;20478;-80
2023/10/15 14:49:16;;;;;;;8.18;1.30;;;;;;;;;;5078183;28;20036;-80
2023/10/15 14:51:43;;;;;;;9.50;1.30;;;;;;;;;;5077900;28;20051;-80
2023/10/15 14:54:12;;;;;;;10.93;1.38;;;;;;;;;;5066321;28;20520;-80
2023/10/15 14:56:41;;;;;;;7.68;1.23;;;;;;;;;;5074685;28;20041;-80
2023/10/15 14:59:07;;;;;;;7.32;1.17;;;;;;;;;;5087092;28;20045;-79